sensor_id;sensor_type;location;lat;lon;timestamp;P1;durP1;ratioP1;P2;durP2;ratioP2
6723;SDS011;3399;52.530;13.304;2022-10-22T00:02:19;11.70;;;10.50;;
6723;SDS011;3399;52.530;13.304;2022-10-22T00:04:45;12.90;;;11.70;;
6723;SDS011;3399;52.530;13.304;2022-10-22T00:07:12;11.57;;;10.17;;
6723;SDS011;3399;52.530;13.304;2022-10-22T00:09:38;12.57;;;11.23;;
6723;SDS011;3399;52.530;13.304;2022-10-22T00:12:04;13.27;;;11.63;;
6723;SDS011;3399;52.530;13.304;2022-10-22T00:14:29;14.23;;;12.73;;
6723;SDS011;3399;52.530;13.304;2022-10-22T00:16:55;12.57;;;11.43;;
6723;SDS011;3399;52.530;13.304;2022-10-22T00:19:20;12.47;;;11.17;;
6723;SDS011;3399;52.530;13.304;2022-10-22T00:21:46;12.60;;;11.27;;
6723;SDS011;3399;52.530;13.304;2022-10-22T00:24:11;12.10;;;10.80;;
6723;SDS011;3399;52.530;13.304;2022-10-22T00:26:37;13.33;;;11.97;;
6723;SDS011;3399;52.530;13.304;2022-10-22T00:29:04;13.33;;;10.13;;
6723;SDS011;3399;52.530;13.304;2022-10-22T00:31:29;11.73;;;10.07;;
6723;SDS011;3399;52.530;13.304;2022-10-22T00:33:55;13.67;;;11.43;;
6723;SDS011;3399;52.530;13.304;2022-10-22T00:36:20;10.33;;;9.20;;
6723;SDS011;3399;52.530;13.304;2022-10-22T00:38:46;13.60;;;11.83;;
6723;SDS011;3399;52.530;13.304;2022-10-22T00:41:11;11.37;;;10.23;;
6723;SDS011;3399;52.530;13.304;2022-10-22T00:43:57;11.43;;;10.00;;
6723;SDS011;3399;52.530;13.304;2022-10-22T00:46:27;11.80;;;10.60;;
6723;SDS011;3399;52.530;13.304;2022-10-22T00:48:54;11.40;;;10.20;;
6723;SDS011;3399;52.530;13.304;2022-10-22T00:51:23;10.50;;;9.50;;
6723;SDS011;3399;52.530;13.304;2022-10-22T00:53:53;12.30;;;11.00;;
6723;SDS011;3399;52.530;13.304;2022-10-22T00:56:21;11.70;;;10.03;;
6723;SDS011;3399;52.530;13.304;2022-10-22T00:58:49;12.97;;;11.43;;
6723;SDS011;3399;52.530;13.304;2022-10-22T01:01:18;14.43;;;11.00;;
6723;SDS011;3399;52.530;13.304;2022-10-22T01:03:47;15.53;;;12.17;;
6723;SDS011;3399;52.530;13.304;2022-10-22T01:06:14;13.33;;;11.93;;
6723;SDS011;3399;52.530;13.304;2022-10-22T01:08:50;12.63;;;11.43;;
6723;SDS011;3399;52.530;13.304;2022-10-22T01:14:29;14.73;;;12.17;;
6723;SDS011;3399;52.530;13.304;2022-10-22T01:27:41;14.63;;;12.80;;
6723;SDS011;3399;52.530;13.304;2022-10-22T01:30:20;15.30;;;12.30;;
6723;SDS011;3399;52.530;13.304;2022-10-22T01:32:48;15.93;;;11.93;;
6723;SDS011;3399;52.530;13.304;2022-10-22T01:35:17;13.70;;;12.30;;
6723;SDS011;3399;52.530;13.304;2022-10-22T01:37:48;14.40;;;12.73;;
6723;SDS011;3399;52.530;13.304;2022-10-22T01:40:18;13.30;;;11.77;;
6723;SDS011;3399;52.530;13.304;2022-10-22T01:43:01;14.23;;;12.63;;
6723;SDS011;3399;52.530;13.304;2022-10-22T01:45:32;15.30;;;12.77;;
6723;SDS011;3399;52.530;13.304;2022-10-22T01:48:07;13.80;;;11.67;;
6723;SDS011;3399;52.530;13.304;2022-10-22T01:58:39;14.23;;;12.73;;
6723;SDS011;3399;52.530;13.304;2022-10-22T02:04:22;14.30;;;12.90;;
6723;SDS011;3399;52.530;13.304;2022-10-22T02:07:09;14.70;;;11.63;;
6723;SDS011;3399;52.530;13.304;2022-10-22T02:09:38;14.50;;;12.53;;
6723;SDS011;3399;52.530;13.304;2022-10-22T02:12:05;14.93;;;12.90;;
6723;SDS011;3399;52.530;13.304;2022-10-22T02:14:33;20.50;;;13.10;;
6723;SDS011;3399;52.530;13.304;2022-10-22T02:17:01;13.57;;;12.27;;
6723;SDS011;3399;52.530;13.304;2022-10-22T02:19:40;15.10;;;13.43;;
6723;SDS011;3399;52.530;13.304;2022-10-22T02:22:45;13.27;;;11.97;;
6723;SDS011;3399;52.530;13.304;2022-10-22T02:25:11;14.10;;;12.33;;
6723;SDS011;3399;52.530;13.304;2022-10-22T02:27:47;14.60;;;12.17;;
6723;SDS011;3399;52.530;13.304;2022-10-22T02:30:34;13.63;;;12.17;;
6723;SDS011;3399;52.530;13.304;2022-10-22T02:33:36;13.77;;;12.20;;
6723;SDS011;3399;52.530;13.304;2022-10-22T02:35:57;14.43;;;12.93;;
6723;SDS011;3399;52.530;13.304;2022-10-22T02:38:24;13.20;;;11.57;;
6723;SDS011;3399;52.530;13.304;2022-10-22T02:40:50;17.00;;;12.13;;
6723;SDS011;3399;52.530;13.304;2022-10-22T02:43:16;12.37;;;10.90;;
6723;SDS011;3399;52.530;13.304;2022-10-22T02:45:43;12.43;;;10.87;;
6723;SDS011;3399;52.530;13.304;2022-10-22T02:48:08;13.73;;;10.73;;
6723;SDS011;3399;52.530;13.304;2022-10-22T02:50:34;11.70;;;10.50;;
6723;SDS011;3399;52.530;13.304;2022-10-22T02:52:59;14.07;;;11.30;;
6723;SDS011;3399;52.530;13.304;2022-10-22T02:55:25;12.83;;;11.53;;
6723;SDS011;3399;52.530;13.304;2022-10-22T02:57:50;10.20;;;9.20;;
6723;SDS011;3399;52.530;13.304;2022-10-22T03:00:16;12.63;;;11.17;;
6723;SDS011;3399;52.530;13.304;2022-10-22T03:02:42;15.83;;;12.40;;
6723;SDS011;3399;52.530;13.304;2022-10-22T03:05:07;12.60;;;11.23;;
6723;SDS011;3399;52.530;13.304;2022-10-22T03:07:34;12.53;;;11.33;;
6723;SDS011;3399;52.530;13.304;2022-10-22T03:09:59;13.87;;;11.30;;
6723;SDS011;3399;52.530;13.304;2022-10-22T03:12:25;11.77;;;10.57;;
6723;SDS011;3399;52.530;13.304;2022-10-22T03:14:50;14.20;;;12.00;;
6723;SDS011;3399;52.530;13.304;2022-10-22T03:17:15;15.43;;;12.13;;
6723;SDS011;3399;52.530;13.304;2022-10-22T03:19:41;13.13;;;11.77;;
6723;SDS011;3399;52.530;13.304;2022-10-22T03:22:12;12.57;;;11.27;;
6723;SDS011;3399;52.530;13.304;2022-10-22T03:24:45;11.20;;;10.10;;
6723;SDS011;3399;52.530;13.304;2022-10-22T03:27:15;11.67;;;10.30;;
6723;SDS011;3399;52.530;13.304;2022-10-22T03:29:43;13.27;;;10.60;;
6723;SDS011;3399;52.530;13.304;2022-10-22T03:32:11;13.00;;;10.73;;
6723;SDS011;3399;52.530;13.304;2022-10-22T03:34:37;13.40;;;11.83;;
6723;SDS011;3399;52.530;13.304;2022-10-22T03:37:03;13.20;;;11.23;;
6723;SDS011;3399;52.530;13.304;2022-10-22T03:39:29;13.27;;;11.13;;
6723;SDS011;3399;52.530;13.304;2022-10-22T03:41:57;13.83;;;10.80;;
6723;SDS011;3399;52.530;13.304;2022-10-22T03:44:22;13.60;;;12.10;;
6723;SDS011;3399;52.530;13.304;2022-10-22T03:46:49;13.90;;;12.03;;
6723;SDS011;3399;52.530;13.304;2022-10-22T03:49:15;12.27;;;10.17;;
6723;SDS011;3399;52.530;13.304;2022-10-22T03:51:40;13.00;;;10.03;;
6723;SDS011;3399;52.530;13.304;2022-10-22T03:54:06;11.67;;;10.47;;
6723;SDS011;3399;52.530;13.304;2022-10-22T03:56:31;12.63;;;11.37;;
6723;SDS011;3399;52.530;13.304;2022-10-22T03:58:58;12.27;;;11.00;;
6723;SDS011;3399;52.530;13.304;2022-10-22T04:01:25;11.50;;;10.40;;
6723;SDS011;3399;52.530;13.304;2022-10-22T04:03:56;12.77;;;11.20;;
6723;SDS011;3399;52.530;13.304;2022-10-22T04:06:22;12.17;;;10.63;;
6723;SDS011;3399;52.530;13.304;2022-10-22T04:08:48;12.33;;;11.13;;
6723;SDS011;3399;52.530;13.304;2022-10-22T04:11:15;15.97;;;13.13;;
6723;SDS011;3399;52.530;13.304;2022-10-22T04:13:41;16.37;;;11.70;;
6723;SDS011;3399;52.530;13.304;2022-10-22T04:16:07;14.97;;;12.93;;
6723;SDS011;3399;52.530;13.304;2022-10-22T04:18:37;19.50;;;12.37;;
6723;SDS011;3399;52.530;13.304;2022-10-22T04:21:04;14.70;;;11.20;;
6723;SDS011;3399;52.530;13.304;2022-10-22T04:23:31;13.80;;;11.47;;
6723;SDS011;3399;52.530;13.304;2022-10-22T04:26:00;14.87;;;11.80;;
6723;SDS011;3399;52.530;13.304;2022-10-22T04:28:26;12.53;;;11.23;;
6723;SDS011;3399;52.530;13.304;2022-10-22T04:30:52;14.10;;;12.60;;
6723;SDS011;3399;52.530;13.304;2022-10-22T04:33:18;12.63;;;10.70;;
6723;SDS011;3399;52.530;13.304;2022-10-22T04:35:43;13.00;;;11.43;;
6723;SDS011;3399;52.530;13.304;2022-10-22T04:38:09;14.17;;;12.50;;
6723;SDS011;3399;52.530;13.304;2022-10-22T04:40:36;11.40;;;10.20;;
6723;SDS011;3399;52.530;13.304;2022-10-22T04:43:01;15.53;;;11.73;;
6723;SDS011;3399;52.530;13.304;2022-10-22T04:45:27;12.93;;;11.63;;
6723;SDS011;3399;52.530;13.304;2022-10-22T04:47:52;13.23;;;11.83;;
6723;SDS011;3399;52.530;13.304;2022-10-22T04:50:18;12.90;;;10.87;;
6723;SDS011;3399;52.530;13.304;2022-10-22T04:52:43;12.53;;;10.50;;
6723;SDS011;3399;52.530;13.304;2022-10-22T04:55:09;13.07;;;11.63;;
6723;SDS011;3399;52.530;13.304;2022-10-22T04:57:34;13.20;;;11.80;;
6723;SDS011;3399;52.530;13.304;2022-10-22T05:00:00;13.33;;;12.03;;
6723;SDS011;3399;52.530;13.304;2022-10-22T05:02:25;11.93;;;10.73;;
6723;SDS011;3399;52.530;13.304;2022-10-22T05:04:51;12.37;;;10.67;;
6723;SDS011;3399;52.530;13.304;2022-10-22T05:07:16;11.97;;;10.83;;
6723;SDS011;3399;52.530;13.304;2022-10-22T05:09:42;12.43;;;11.13;;
6723;SDS011;3399;52.530;13.304;2022-10-22T05:12:08;16.13;;;11.33;;
6723;SDS011;3399;52.530;13.304;2022-10-22T05:14:33;14.87;;;13.20;;
6723;SDS011;3399;52.530;13.304;2022-10-22T05:16:59;12.50;;;11.20;;
6723;SDS011;3399;52.530;13.304;2022-10-22T05:19:25;12.67;;;11.37;;
6723;SDS011;3399;52.530;13.304;2022-10-22T05:21:52;12.27;;;10.97;;
6723;SDS011;3399;52.530;13.304;2022-10-22T05:24:19;12.80;;;11.50;;
6723;SDS011;3399;52.530;13.304;2022-10-22T05:26:47;13.67;;;12.30;;
6723;SDS011;3399;52.530;13.304;2022-10-22T05:29:14;13.33;;;12.00;;
6723;SDS011;3399;52.530;13.304;2022-10-22T05:31:40;13.87;;;11.47;;
6723;SDS011;3399;52.530;13.304;2022-10-22T05:34:05;13.17;;;11.83;;
6723;SDS011;3399;52.530;13.304;2022-10-22T05:36:31;12.13;;;10.93;;
6723;SDS011;3399;52.530;13.304;2022-10-22T05:38:57;12.70;;;11.40;;
6723;SDS011;3399;52.530;13.304;2022-10-22T05:41:23;12.00;;;10.80;;
6723;SDS011;3399;52.530;13.304;2022-10-22T05:43:50;14.43;;;12.47;;
6723;SDS011;3399;52.530;13.304;2022-10-22T05:46:19;13.93;;;12.53;;
6723;SDS011;3399;52.530;13.304;2022-10-22T05:48:53;13.00;;;11.67;;
6723;SDS011;3399;52.530;13.304;2022-10-22T05:51:21;13.87;;;12.33;;
6723;SDS011;3399;52.530;13.304;2022-10-22T05:53:50;13.47;;;12.00;;
6723;SDS011;3399;52.530;13.304;2022-10-22T05:56:17;13.77;;;11.70;;
6723;SDS011;3399;52.530;13.304;2022-10-22T05:58:43;17.53;;;12.27;;
6723;SDS011;3399;52.530;13.304;2022-10-22T06:01:14;13.40;;;11.20;;
6723;SDS011;3399;52.530;13.304;2022-10-22T06:03:41;15.17;;;10.63;;
6723;SDS011;3399;52.530;13.304;2022-10-22T06:08:45;13.13;;;11.80;;
6723;SDS011;3399;52.530;13.304;2022-10-22T06:11:12;13.40;;;12.00;;
6723;SDS011;3399;52.530;13.304;2022-10-22T06:13:37;14.40;;;12.30;;
6723;SDS011;3399;52.530;13.304;2022-10-22T06:16:03;15.77;;;11.67;;
6723;SDS011;3399;52.530;13.304;2022-10-22T06:18:28;14.07;;;12.67;;
6723;SDS011;3399;52.530;13.304;2022-10-22T06:20:54;13.17;;;11.77;;
6723;SDS011;3399;52.530;13.304;2022-10-22T06:23:19;14.40;;;12.03;;
6723;SDS011;3399;52.530;13.304;2022-10-22T06:25:54;13.57;;;11.57;;
6723;SDS011;3399;52.530;13.304;2022-10-22T06:28:21;13.30;;;11.93;;
6723;SDS011;3399;52.530;13.304;2022-10-22T06:30:46;14.70;;;13.10;;
6723;SDS011;3399;52.530;13.304;2022-10-22T06:33:12;12.37;;;10.53;;
6723;SDS011;3399;52.530;13.304;2022-10-22T06:35:37;12.83;;;11.53;;
6723;SDS011;3399;52.530;13.304;2022-10-22T06:38:03;12.27;;;10.83;;
6723;SDS011;3399;52.530;13.304;2022-10-22T06:40:28;15.23;;;12.43;;
6723;SDS011;3399;52.530;13.304;2022-10-22T06:42:54;11.90;;;10.70;;
6723;SDS011;3399;52.530;13.304;2022-10-22T06:45:19;12.93;;;11.40;;
6723;SDS011;3399;52.530;13.304;2022-10-22T06:47:44;13.23;;;10.97;;
6723;SDS011;3399;52.530;13.304;2022-10-22T06:50:11;13.30;;;11.93;;
6723;SDS011;3399;52.530;13.304;2022-10-22T06:52:37;13.27;;;11.80;;
6723;SDS011;3399;52.530;13.304;2022-10-22T06:55:02;12.53;;;11.33;;
6723;SDS011;3399;52.530;13.304;2022-10-22T06:57:28;13.37;;;11.93;;
6723;SDS011;3399;52.530;13.304;2022-10-22T06:59:54;14.00;;;10.90;;
6723;SDS011;3399;52.530;13.304;2022-10-22T07:02:20;13.50;;;11.20;;
6723;SDS011;3399;52.530;13.304;2022-10-22T07:04:45;11.90;;;10.70;;
6723;SDS011;3399;52.530;13.304;2022-10-22T07:07:11;11.87;;;9.67;;
6723;SDS011;3399;52.530;13.304;2022-10-22T07:09:36;13.00;;;11.17;;
6723;SDS011;3399;52.530;13.304;2022-10-22T07:12:03;11.57;;;10.37;;
6723;SDS011;3399;52.530;13.304;2022-10-22T07:14:28;12.13;;;11.00;;
6723;SDS011;3399;52.530;13.304;2022-10-22T07:16:54;10.97;;;9.67;;
6723;SDS011;3399;52.530;13.304;2022-10-22T07:19:19;13.23;;;11.53;;
6723;SDS011;3399;52.530;13.304;2022-10-22T07:21:45;12.37;;;10.00;;
6723;SDS011;3399;52.530;13.304;2022-10-22T07:24:10;10.83;;;9.73;;
6723;SDS011;3399;52.530;13.304;2022-10-22T07:26:36;11.17;;;10.07;;
6723;SDS011;3399;52.530;13.304;2022-10-22T07:29:02;10.87;;;9.53;;
6723;SDS011;3399;52.530;13.304;2022-10-22T07:31:28;11.63;;;10.40;;
6723;SDS011;3399;52.530;13.304;2022-10-22T07:33:54;11.00;;;9.77;;
6723;SDS011;3399;52.530;13.304;2022-10-22T07:36:19;10.93;;;9.90;;
6723;SDS011;3399;52.530;13.304;2022-10-22T07:38:45;11.37;;;10.13;;
6723;SDS011;3399;52.530;13.304;2022-10-22T07:41:13;12.57;;;10.47;;
6723;SDS011;3399;52.530;13.304;2022-10-22T07:43:40;11.63;;;9.93;;
6723;SDS011;3399;52.530;13.304;2022-10-22T07:46:06;11.57;;;10.40;;
6723;SDS011;3399;52.530;13.304;2022-10-22T07:48:33;17.13;;;11.37;;
6723;SDS011;3399;52.530;13.304;2022-10-22T07:50:59;10.83;;;9.67;;
6723;SDS011;3399;52.530;13.304;2022-10-22T07:53:25;11.93;;;10.80;;
6723;SDS011;3399;52.530;13.304;2022-10-22T07:55:50;10.33;;;9.20;;
6723;SDS011;3399;52.530;13.304;2022-10-22T07:58:17;11.00;;;10.00;;
6723;SDS011;3399;52.530;13.304;2022-10-22T08:00:43;13.63;;;10.13;;
6723;SDS011;3399;52.530;13.304;2022-10-22T08:03:10;12.00;;;10.80;;
6723;SDS011;3399;52.530;13.304;2022-10-22T08:05:36;11.07;;;9.40;;
6723;SDS011;3399;52.530;13.304;2022-10-22T08:08:03;10.70;;;9.70;;
6723;SDS011;3399;52.530;13.304;2022-10-22T08:10:30;13.53;;;10.80;;
6723;SDS011;3399;52.530;13.304;2022-10-22T08:12:56;10.97;;;9.87;;
6723;SDS011;3399;52.530;13.304;2022-10-22T08:15:22;11.70;;;10.50;;
6723;SDS011;3399;52.530;13.304;2022-10-22T08:17:49;11.47;;;10.33;;
6723;SDS011;3399;52.530;13.304;2022-10-22T08:20:15;11.27;;;10.07;;
6723;SDS011;3399;52.530;13.304;2022-10-22T08:22:40;11.27;;;10.13;;
6723;SDS011;3399;52.530;13.304;2022-10-22T08:25:06;13.63;;;11.00;;
6723;SDS011;3399;52.530;13.304;2022-10-22T08:27:32;12.30;;;10.53;;
6723;SDS011;3399;52.530;13.304;2022-10-22T08:29:58;10.77;;;9.57;;
6723;SDS011;3399;52.530;13.304;2022-10-22T08:32:23;11.73;;;10.53;;
6723;SDS011;3399;52.530;13.304;2022-10-22T08:34:49;10.20;;;9.30;;
6723;SDS011;3399;52.530;13.304;2022-10-22T08:37:14;11.97;;;9.47;;
6723;SDS011;3399;52.530;13.304;2022-10-22T08:39:41;10.97;;;9.87;;
6723;SDS011;3399;52.530;13.304;2022-10-22T08:45:03;11.70;;;10.13;;
6723;SDS011;3399;52.530;13.304;2022-10-22T08:47:43;13.30;;;10.83;;
6723;SDS011;3399;52.530;13.304;2022-10-22T08:50:26;10.50;;;9.20;;
6723;SDS011;3399;52.530;13.304;2022-10-22T08:53:00;11.17;;;9.63;;
6723;SDS011;3399;52.530;13.304;2022-10-22T08:55:29;11.87;;;10.37;;
6723;SDS011;3399;52.530;13.304;2022-10-22T08:57:59;11.77;;;9.10;;
6723;SDS011;3399;52.530;13.304;2022-10-22T09:00:40;11.23;;;10.03;;
6723;SDS011;3399;52.530;13.304;2022-10-22T09:03:40;11.00;;;10.00;;
6723;SDS011;3399;52.530;13.304;2022-10-22T09:06:18;10.97;;;9.77;;
6723;SDS011;3399;52.530;13.304;2022-10-22T09:08:48;13.00;;;9.80;;
6723;SDS011;3399;52.530;13.304;2022-10-22T09:13:44;11.77;;;10.67;;
6723;SDS011;3399;52.530;13.304;2022-10-22T09:16:29;13.50;;;10.00;;
6723;SDS011;3399;52.530;13.304;2022-10-22T09:19:08;11.53;;;10.43;;
6723;SDS011;3399;52.530;13.304;2022-10-22T09:21:58;10.90;;;9.80;;
6723;SDS011;3399;52.530;13.304;2022-10-22T09:24:35;10.30;;;9.30;;
6723;SDS011;3399;52.530;13.304;2022-10-22T09:27:06;11.73;;;10.33;;
6723;SDS011;3399;52.530;13.304;2022-10-22T09:29:39;10.90;;;9.80;;
6723;SDS011;3399;52.530;13.304;2022-10-22T09:32:04;10.50;;;9.40;;
6723;SDS011;3399;52.530;13.304;2022-10-22T09:34:30;10.93;;;9.93;;
6723;SDS011;3399;52.530;13.304;2022-10-22T09:37:03;12.20;;;11.00;;
6723;SDS011;3399;52.530;13.304;2022-10-22T09:39:32;10.33;;;9.33;;
6723;SDS011;3399;52.530;13.304;2022-10-22T09:42:00;12.27;;;10.60;;
6723;SDS011;3399;52.530;13.304;2022-10-22T09:44:26;13.07;;;9.90;;
6723;SDS011;3399;52.530;13.304;2022-10-22T09:46:52;10.83;;;9.73;;
6723;SDS011;3399;52.530;13.304;2022-10-22T09:49:18;10.87;;;9.87;;
6723;SDS011;3399;52.530;13.304;2022-10-22T09:51:51;10.17;;;9.03;;
6723;SDS011;3399;52.530;13.304;2022-10-22T09:57:19;9.87;;;8.70;;
6723;SDS011;3399;52.530;13.304;2022-10-22T09:59:49;11.60;;;10.40;;
6723;SDS011;3399;52.530;13.304;2022-10-22T10:02:18;11.90;;;10.03;;
6723;SDS011;3399;52.530;13.304;2022-10-22T10:04:46;11.37;;;8.73;;
6723;SDS011;3399;52.530;13.304;2022-10-22T10:07:17;12.27;;;9.60;;
6723;SDS011;3399;52.530;13.304;2022-10-22T10:09:55;10.07;;;9.17;;
6723;SDS011;3399;52.530;13.304;2022-10-22T10:12:23;9.80;;;8.80;;
6723;SDS011;3399;52.530;13.304;2022-10-22T10:23:55;12.40;;;10.20;;
6723;SDS011;3399;52.530;13.304;2022-10-22T10:29:26;12.00;;;10.03;;
6723;SDS011;3399;52.530;13.304;2022-10-22T10:32:11;12.67;;;10.40;;
6723;SDS011;3399;52.530;13.304;2022-10-22T10:40:41;12.07;;;10.63;;
6723;SDS011;3399;52.530;13.304;2022-10-22T10:43:28;10.83;;;9.70;;
6723;SDS011;3399;52.530;13.304;2022-10-22T10:48:48;13.53;;;10.93;;
6723;SDS011;3399;52.530;13.304;2022-10-22T10:51:43;14.50;;;11.53;;
6723;SDS011;3399;52.530;13.304;2022-10-22T11:00:09;13.37;;;11.03;;
6723;SDS011;3399;52.530;13.304;2022-10-22T11:05:45;11.40;;;10.37;;
6723;SDS011;3399;52.530;13.304;2022-10-22T11:08:23;12.37;;;11.20;;
6723;SDS011;3399;52.530;13.304;2022-10-22T11:11:17;13.67;;;11.50;;
6723;SDS011;3399;52.530;13.304;2022-10-22T11:16:43;14.90;;;11.70;;
6723;SDS011;3399;52.530;13.304;2022-10-22T11:19:26;14.53;;;11.60;;
6723;SDS011;3399;52.530;13.304;2022-10-22T11:21:57;13.03;;;11.70;;
6723;SDS011;3399;52.530;13.304;2022-10-22T11:24:32;13.20;;;11.97;;
6723;SDS011;3399;52.530;13.304;2022-10-22T11:27:21;13.67;;;11.97;;
6723;SDS011;3399;52.530;13.304;2022-10-22T11:29:56;12.90;;;11.60;;
6723;SDS011;3399;52.530;13.304;2022-10-22T11:32:27;11.80;;;10.60;;
6723;SDS011;3399;52.530;13.304;2022-10-22T11:35:02;14.27;;;12.23;;
6723;SDS011;3399;52.530;13.304;2022-10-22T11:37:31;12.67;;;11.17;;
6723;SDS011;3399;52.530;13.304;2022-10-22T11:40:05;12.47;;;11.17;;
6723;SDS011;3399;52.530;13.304;2022-10-22T11:42:39;12.67;;;9.83;;
6723;SDS011;3399;52.530;13.304;2022-10-22T11:48:26;10.30;;;9.30;;
6723;SDS011;3399;52.530;13.304;2022-10-22T11:58:33;10.07;;;8.07;;
6723;SDS011;3399;52.530;13.304;2022-10-22T12:16:26;9.40;;;7.27;;
6723;SDS011;3399;52.530;13.304;2022-10-22T12:19:13;7.03;;;6.13;;
6723;SDS011;3399;52.530;13.304;2022-10-22T12:21:51;8.13;;;6.03;;
6723;SDS011;3399;52.530;13.304;2022-10-22T12:24:23;6.07;;;5.43;;
6723;SDS011;3399;52.530;13.304;2022-10-22T12:26:50;7.07;;;5.70;;
6723;SDS011;3399;52.530;13.304;2022-10-22T12:29:16;8.73;;;5.93;;
6723;SDS011;3399;52.530;13.304;2022-10-22T12:31:44;6.00;;;5.50;;
6723;SDS011;3399;52.530;13.304;2022-10-22T12:34:14;7.80;;;6.10;;
6723;SDS011;3399;52.530;13.304;2022-10-22T12:36:42;5.90;;;4.87;;
6723;SDS011;3399;52.530;13.304;2022-10-22T12:39:10;7.10;;;4.70;;
6723;SDS011;3399;52.530;13.304;2022-10-22T12:41:38;7.60;;;4.27;;
6723;SDS011;3399;52.530;13.304;2022-10-22T12:44:03;4.50;;;4.10;;
6723;SDS011;3399;52.530;13.304;2022-10-22T12:46:30;7.47;;;4.55;;
6723;SDS011;3399;52.530;13.304;2022-10-22T12:49:02;3.88;;;3.47;;
6723;SDS011;3399;52.530;13.304;2022-10-22T12:51:30;4.82;;;4.03;;
6723;SDS011;3399;52.530;13.304;2022-10-22T12:53:59;3.63;;;3.25;;
6723;SDS011;3399;52.530;13.304;2022-10-22T12:56:30;3.90;;;2.88;;
6723;SDS011;3399;52.530;13.304;2022-10-22T12:59:02;3.92;;;3.15;;
6723;SDS011;3399;52.530;13.304;2022-10-22T13:01:33;4.25;;;3.65;;
6723;SDS011;3399;52.530;13.304;2022-10-22T13:06:41;4.25;;;3.60;;
6723;SDS011;3399;52.530;13.304;2022-10-22T13:09:22;6.95;;;3.10;;
6723;SDS011;3399;52.530;13.304;2022-10-22T13:14:18;7.15;;;3.33;;
6723;SDS011;3399;52.530;13.304;2022-10-22T13:22:23;3.03;;;2.70;;
6723;SDS011;3399;52.530;13.304;2022-10-22T13:24:50;3.50;;;2.53;;
6723;SDS011;3399;52.530;13.304;2022-10-22T13:27:16;5.10;;;2.90;;
6723;SDS011;3399;52.530;13.304;2022-10-22T13:29:42;3.33;;;2.55;;
6723;SDS011;3399;52.530;13.304;2022-10-22T13:32:27;3.33;;;3.03;;
6723;SDS011;3399;52.530;13.304;2022-10-22T13:35:01;6.25;;;2.35;;
6723;SDS011;3399;52.530;13.304;2022-10-22T13:37:28;4.88;;;2.30;;
6723;SDS011;3399;52.530;13.304;2022-10-22T13:39:55;2.83;;;2.60;;
6723;SDS011;3399;52.530;13.304;2022-10-22T13:42:21;5.45;;;2.47;;
6723;SDS011;3399;52.530;13.304;2022-10-22T13:44:46;4.43;;;3.33;;
6723;SDS011;3399;52.530;13.304;2022-10-22T13:47:16;2.47;;;2.25;;
6723;SDS011;3399;52.530;13.304;2022-10-22T13:49:54;4.50;;;2.13;;
6723;SDS011;3399;52.530;13.304;2022-10-22T13:52:26;3.95;;;2.83;;
6723;SDS011;3399;52.530;13.304;2022-10-22T13:54:57;4.10;;;2.47;;
6723;SDS011;3399;52.530;13.304;2022-10-22T13:57:22;4.13;;;2.28;;
6723;SDS011;3399;52.530;13.304;2022-10-22T13:59:48;6.15;;;2.28;;
6723;SDS011;3399;52.530;13.304;2022-10-22T14:02:13;5.28;;;1.92;;
6723;SDS011;3399;52.530;13.304;2022-10-22T14:04:40;2.35;;;2.03;;
6723;SDS011;3399;52.530;13.304;2022-10-22T14:07:15;2.78;;;2.08;;
6723;SDS011;3399;52.530;13.304;2022-10-22T14:09:42;4.35;;;2.20;;
6723;SDS011;3399;52.530;13.304;2022-10-22T14:12:16;2.92;;;2.58;;
6723;SDS011;3399;52.530;13.304;2022-10-22T14:14:41;6.70;;;2.47;;
6723;SDS011;3399;52.530;13.304;2022-10-22T14:17:09;3.88;;;2.60;;
6723;SDS011;3399;52.530;13.304;2022-10-22T14:19:40;5.30;;;2.30;;
6723;SDS011;3399;52.530;13.304;2022-10-22T14:22:12;4.40;;;2.20;;
6723;SDS011;3399;52.530;13.304;2022-10-22T14:24:42;4.43;;;2.20;;
6723;SDS011;3399;52.530;13.304;2022-10-22T14:27:09;4.07;;;2.33;;
6723;SDS011;3399;52.530;13.304;2022-10-22T14:29:39;4.97;;;2.07;;
6723;SDS011;3399;52.530;13.304;2022-10-22T14:32:08;5.03;;;2.50;;
6723;SDS011;3399;52.530;13.304;2022-10-22T14:34:38;4.03;;;2.63;;
6723;SDS011;3399;52.530;13.304;2022-10-22T14:37:04;4.97;;;2.60;;
6723;SDS011;3399;52.530;13.304;2022-10-22T14:39:29;5.33;;;2.43;;
6723;SDS011;3399;52.530;13.304;2022-10-22T14:41:55;5.63;;;2.37;;
6723;SDS011;3399;52.530;13.304;2022-10-22T14:44:20;5.50;;;2.20;;
6723;SDS011;3399;52.530;13.304;2022-10-22T14:46:48;6.93;;;2.70;;
6723;SDS011;3399;52.530;13.304;2022-10-22T14:49:13;6.00;;;2.67;;
6723;SDS011;3399;52.530;13.304;2022-10-22T14:51:38;4.20;;;2.23;;
6723;SDS011;3399;52.530;13.304;2022-10-22T14:54:04;5.80;;;2.70;;
6723;SDS011;3399;52.530;13.304;2022-10-22T14:56:30;8.60;;;2.50;;
6723;SDS011;3399;52.530;13.304;2022-10-22T14:58:55;8.33;;;2.77;;
6723;SDS011;3399;52.530;13.304;2022-10-22T15:01:21;3.80;;;2.53;;
6723;SDS011;3399;52.530;13.304;2022-10-22T15:03:46;3.93;;;2.87;;
6723;SDS011;3399;52.530;13.304;2022-10-22T15:06:12;4.03;;;2.73;;
6723;SDS011;3399;52.530;13.304;2022-10-22T15:08:37;4.93;;;2.57;;
6723;SDS011;3399;52.530;13.304;2022-10-22T15:11:08;5.20;;;2.40;;
6723;SDS011;3399;52.530;13.304;2022-10-22T15:13:35;3.53;;;2.60;;
6723;SDS011;3399;52.530;13.304;2022-10-22T15:16:05;3.77;;;2.37;;
6723;SDS011;3399;52.530;13.304;2022-10-22T15:18:32;5.40;;;2.63;;
6723;SDS011;3399;52.530;13.304;2022-10-22T15:20:59;6.37;;;2.87;;
6723;SDS011;3399;52.530;13.304;2022-10-22T15:23:27;7.13;;;2.20;;
6723;SDS011;3399;52.530;13.304;2022-10-22T15:25:53;8.40;;;3.77;;
6723;SDS011;3399;52.530;13.304;2022-10-22T15:28:19;6.77;;;3.07;;
6723;SDS011;3399;52.530;13.304;2022-10-22T15:30:50;4.60;;;2.33;;
6723;SDS011;3399;52.530;13.304;2022-10-22T15:33:16;5.53;;;2.37;;
6723;SDS011;3399;52.530;13.304;2022-10-22T15:35:42;4.33;;;2.80;;
6723;SDS011;3399;52.530;13.304;2022-10-22T15:38:07;7.23;;;3.80;;
6723;SDS011;3399;52.530;13.304;2022-10-22T15:40:33;10.20;;;3.30;;
6723;SDS011;3399;52.530;13.304;2022-10-22T15:42:59;5.83;;;3.03;;
6723;SDS011;3399;52.530;13.304;2022-10-22T15:45:24;10.97;;;3.37;;
6723;SDS011;3399;52.530;13.304;2022-10-22T15:47:50;4.50;;;2.77;;
6723;SDS011;3399;52.530;13.304;2022-10-22T15:50:15;5.93;;;2.93;;
6723;SDS011;3399;52.530;13.304;2022-10-22T15:52:41;5.97;;;2.70;;
6723;SDS011;3399;52.530;13.304;2022-10-22T15:55:06;8.37;;;3.00;;
6723;SDS011;3399;52.530;13.304;2022-10-22T15:57:34;5.20;;;3.10;;
6723;SDS011;3399;52.530;13.304;2022-10-22T16:00:00;5.53;;;3.03;;
6723;SDS011;3399;52.530;13.304;2022-10-22T16:02:25;4.73;;;2.57;;
6723;SDS011;3399;52.530;13.304;2022-10-22T16:04:51;4.97;;;3.40;;
6723;SDS011;3399;52.530;13.304;2022-10-22T16:07:16;5.73;;;3.03;;
6723;SDS011;3399;52.530;13.304;2022-10-22T16:09:42;6.87;;;2.80;;
6723;SDS011;3399;52.530;13.304;2022-10-22T16:12:07;4.93;;;2.87;;
6723;SDS011;3399;52.530;13.304;2022-10-22T16:14:33;7.77;;;3.37;;
6723;SDS011;3399;52.530;13.304;2022-10-22T16:16:59;5.10;;;3.30;;
6723;SDS011;3399;52.530;13.304;2022-10-22T16:19:25;10.10;;;4.33;;
6723;SDS011;3399;52.530;13.304;2022-10-22T16:21:51;5.30;;;4.00;;
6723;SDS011;3399;52.530;13.304;2022-10-22T16:24:18;6.97;;;5.10;;
6723;SDS011;3399;52.530;13.304;2022-10-22T16:26:45;7.27;;;4.13;;
6723;SDS011;3399;52.530;13.304;2022-10-22T16:29:10;10.40;;;5.50;;
6723;SDS011;3399;52.530;13.304;2022-10-22T16:31:36;9.13;;;4.03;;
6723;SDS011;3399;52.530;13.304;2022-10-22T16:34:04;5.00;;;3.93;;
6723;SDS011;3399;52.530;13.304;2022-10-22T16:36:30;8.03;;;5.93;;
6723;SDS011;3399;52.530;13.304;2022-10-22T16:38:55;7.10;;;4.53;;